Time;durP1;ratioP1;P1;durP2;ratioP2;P2;SDS_P1;SDS_P2;PMS_P1;PMS_P2;Temp;Humidity;BMP_temperature;BMP_pressure;BME280_temperature;BME280_humidity;BME280_pressure;Samples;Min_cycle;Max_cycle;Signal;HPM_P1;HPM_P2
2023/06/14 07:07:36;;;;;;;7.50;2.50;;;;;;;-144.73;26.55;80344.09;103849;1302;544750;-66
2023/06/14 07:10:24;;;;;;;7.20;2.70;;;;;;;-144.73;26.74;80314.08;106389;1286;24222;-65
2023/06/14 07:13:10;;;;;;;7.30;2.90;;;;;;;-144.73;26.69;80232.34;106952;1280;23255;-68
2023/06/14 07:16:00;;;;;;;6.90;2.70;;;;;;;-144.73;27.04;80509.95;106303;1272;22579;-66
2023/06/14 07:18:48;;;;;;;6.40;2.80;;;;;;;-144.73;27.48;80610.24;107398;1265;22523;-67
2023/06/14 07:21:34;;;;;;;8.10;2.70;;;;;;;-144.73;27.79;80689.23;107699;1267;133440;-66
2023/06/14 07:24:21;;;;;;;4.10;2.40;;;;;;;-144.73;27.86;80690.81;107710;1274;24702;-66
2023/06/14 07:27:08;;;;;;;5.60;2.80;;;;;;;-144.73;27.81;80782.03;107288;1267;22522;-65
2023/06/14 07:29:54;;;;;;;6.70;2.50;;;;;;;-144.73;27.99;80815.20;107396;1260;22514;-66
2023/06/14 07:32:42;;;;;;;7.40;2.60;;;;;;;-144.73;28.03;80858.25;107189;1273;24349;-64
2023/06/14 07:35:28;;;;;;;5.60;2.20;;;;;;;-144.73;28.12;80917.09;107595;1270;24379;-66
2023/06/14 07:38:15;;;;;;;4.40;2.20;;;;;;;-144.73;28.14;81139.45;107372;1269;22541;-65
2023/06/14 07:41:01;;;;;;;5.60;2.20;;;;;;;-144.73;28.45;81081.39;107139;1263;22529;-66
2023/06/14 07:43:47;;;;;;;6.10;2.30;;;;;;;-144.73;28.44;81062.84;106937;1270;24396;-65
2023/06/14 07:46:34;;;;;;;4.30;2.10;;;;;;;-144.73;28.46;81229.50;107539;1270;22523;-65
2023/06/14 07:49:20;;;;;;;5.70;2.30;;;;;;;-144.73;28.72;81482.29;106927;1270;24258;-65
2023/06/14 07:52:07;;;;;;;6.00;2.10;;;;;;;-144.73;29.33;81466.10;107227;1264;22520;-65
2023/06/14 07:54:53;;;;;;;5.20;2.40;;;;;;;-144.73;29.24;81417.52;107021;1269;22517;-63
2023/06/14 07:57:39;;;;;;;3.70;1.90;;;;;;;-144.73;29.37;81453.06;107150;1270;22519;-64
2023/06/14 08:00:26;;;;;;;5.10;2.20;;;;;;;-144.73;29.34;81299.02;106897;1260;25359;-63
2023/06/14 08:03:12;;;;;;;5.90;2.10;;;;;;;-144.73;29.07;81277.69;107137;1274;24398;-65
2023/06/14 08:06:01;;;;;;;10.60;2.50;;;;;;;-144.73;29.07;81295.46;106880;1273;22544;-62
2023/06/14 08:08:47;;;;;;;7.30;2.20;;;;;;;-144.73;29.26;81308.10;106614;1270;22513;-62
2023/06/14 08:11:34;;;;;;;8.60;2.20;;;;;;;-144.73;29.17;81263.86;106753;1276;25340;-63
2023/06/14 08:14:23;;;;;;;8.00;2.00;;;;;;;-144.73;28.85;81225.95;106569;1265;24254;-63
2023/06/14 08:17:09;;;;;;;9.20;2.50;;;;;;;-144.73;28.84;81207.39;106704;1259;25340;-63
2023/06/14 08:19:57;;;;;;;4.40;2.30;;;;;;;-144.73;29.08;81233.05;106677;1276;22519;-63
2023/06/14 08:22:43;;;;;;;5.40;2.40;;;;;;;-144.73;28.97;81172.63;106743;1275;25247;-63
2023/06/14 08:25:30;;;;;;;6.70;2.70;;;;;;;-144.73;28.69;81175.79;106639;1276;22655;-64
2023/06/14 08:28:17;;;;;;;9.40;4.70;;;;;;;-144.73;29.00;81200.67;106773;1276;24262;-62
2023/06/14 08:31:03;;;;;;;6.30;2.50;;;;;;;-144.73;28.97;81178.15;106740;1276;22533;-64
2023/06/14 08:33:50;;;;;;;7.10;2.70;;;;;;;-144.73;28.89;81133.14;106742;1270;22520;-65
2023/06/14 08:36:36;;;;;;;9.80;2.70;;;;;;;-144.73;28.84;81155.25;106773;1270;25352;-63
2023/06/14 08:39:23;;;;;;;7.10;2.60;;;;;;;-144.73;29.15;81163.55;106627;1275;25271;-63
2023/06/14 08:42:10;;;;;;;4.30;2.50;;;;;;;-144.73;29.16;81274.92;106899;1269;25281;-66
2023/06/14 08:45:06;;;;;;;6.60;2.80;;;;;;;-144.73;29.48;81346.81;106768;1275;22530;-65
2023/06/14 08:47:57;;;;;;;12.00;2.90;;;;;;;-144.73;29.74;81362.21;106984;1271;25610;-64
2023/06/14 08:50:46;;;;;;;8.40;2.70;;;;;;;-144.73;29.91;81461.36;106828;1269;22513;-63
2023/06/14 08:53:34;;;;;;;7.50;2.70;;;;;;;-144.73;30.63;81712.97;106466;1275;22540;-63
2023/06/14 08:56:27;;;;;;;7.00;3.10;;;;;;;-144.73;31.30;81900.61;106619;1275;22519;-64
2023/06/14 08:59:15;;;;;;;6.70;2.50;;;;;;;-144.73;31.90;82016.75;106942;1273;25312;-64
2023/06/14 09:02:03;;;;;;;12.60;3.00;;;;;;;-144.73;32.58;82202.42;106961;1275;22516;-63
2023/06/14 09:04:59;;;;;;;7.80;3.00;;;;;;;-144.73;33.17;82356.50;107019;1276;24236;-63
2023/06/14 09:07:49;;;;;;;9.20;3.00;;;;;;;-144.73;33.48;82456.06;106688;1278;22531;-62
2023/06/14 09:10:37;;;;;;;5.50;2.80;;;;;;;-144.73;34.00;82576.56;106564;1278;25353;-63
2023/06/14 09:13:26;;;;;;;9.70;3.20;;;;;;;-144.73;35.13;82723.15;106824;1278;22522;-62
2023/06/14 09:16:16;;;;;;;11.80;3.20;;;;;;;-144.73;35.64;82786.77;106578;1264;22538;-63
2023/06/14 09:19:03;;;;;;;7.80;3.20;;;;;;;-144.73;35.86;82839.70;106554;1278;22524;-62
2023/06/14 09:21:52;;;;;;;5.90;3.30;;;;;;;-144.73;36.73;82949.16;106493;1277;22523;-63
2023/06/14 09:24:39;;;;;;;6.80;3.50;;;;;;;-144.73;37.15;83011.98;106945;1270;23077;-64
2023/06/14 09:27:26;;;;;;;6.10;3.20;;;;;;;-144.73;37.46;83052.68;106942;1270;22518;-64
2023/06/14 09:30:13;;;;;;;9.40;3.90;;;;;;;-144.73;38.47;83193.75;107028;1262;22540;-63
2023/06/14 09:33:00;;;;;;;7.10;3.30;;;;;;;-144.73;39.68;83336.41;107172;1273;22527;-63
2023/06/14 09:35:51;;;;;;;6.80;3.40;;;;;;;-144.73;40.01;83362.48;106710;1269;22534;-64
2023/06/14 09:38:40;;;;;;;5.90;3.30;;;;;;;-144.73;40.65;83354.59;107117;1270;22523;-63
2023/06/14 09:41:37;;;;;;;8.60;3.70;;;;;;;-144.73;40.84;83391.73;107029;1270;22553;-62
2023/06/14 09:44:28;;;;;;;5.50;3.30;;;;;;;-144.73;41.37;83439.16;107285;1273;25223;-63
2023/06/14 09:47:18;;;;;;;5.70;3.80;;;;;;;-144.73;41.79;83477.88;107070;1271;22527;-63
2023/06/14 09:50:06;;;;;;;12.70;3.50;;;;;;;-144.73;42.04;83484.99;106410;1266;25444;-63
2023/06/14 09:52:57;;;;;;;10.30;7.10;;;;;;;-144.73;41.94;83490.92;107333;1273;24475;-65
2023/06/14 09:55:45;;;;;;;8.90;3.90;;;;;;;-144.73;42.15;83491.32;107255;1272;24965;-64
2023/06/14 09:58:35;;;;;;;8.80;3.40;;;;;;;-144.73;42.29;83475.90;106975;1263;24366;-68
2023/06/14 10:01:25;;;;;;;7.50;4.00;;;;;;;-144.73;42.21;83434.41;106943;1270;23312;-64
2023/06/14 10:04:15;;;;;;;10.90;3.60;;;;;;;-144.73;42.23;83417.41;106792;1263;24512;-64
2023/06/14 10:07:03;;;;;;;8.20;4.00;;;;;;;-144.73;42.15;83400.42;107321;1263;22564;-63
2023/06/14 10:09:50;;;;;;;8.40;4.30;;;;;;;-144.73;41.67;83390.15;107080;1270;22617;-63
2023/06/14 10:12:38;;;;;;;6.40;3.90;;;;;;;-144.73;41.70;83405.56;107174;1266;25491;-62
2023/06/14 10:15:50;;;;;;;12.00;4.20;;;;;;;-144.73;41.57;83369.20;107144;1273;24233;-64
2023/06/14 10:19:18;;;;;;;6.00;4.30;;;;;;;-144.73;41.67;83370.00;106901;1273;25098;-64
2023/06/14 10:22:15;;;;;;;10.60;4.50;;;;;;;-144.73;42.26;83442.31;106956;1269;22517;-66
2023/06/14 10:25:02;;;;;;;7.50;4.00;;;;;;;-144.73;43.10;83478.67;107394;1270;25356;-65
2023/06/14 10:27:49;;;;;;;6.50;3.90;;;;;;;-144.73;42.94;83425.72;107146;1269;24333;-60
2023/06/14 10:30:35;;;;;;;7.70;4.30;;;;;;;-144.73;42.05;83353.02;106854;1273;22523;-68
2023/06/14 10:33:21;;;;;;;6.30;3.70;;;;;;;-144.73;41.78;83289.38;106687;1274;25606;-68
2023/06/14 10:36:31;;;;;;;10.80;4.20;;;;;;;-144.73;41.37;83264.48;106706;1277;24205;-66
2023/06/14 10:39:18;;;;;;;11.00;4.50;;;;;;;-144.73;41.21;83260.54;106717;1277;24185;-68
2023/06/14 10:42:06;;;;;;;7.10;3.90;;;;;;;-144.73;41.25;83300.05;106781;1270;22660;-73
2023/06/14 10:44:55;;;;;;;8.80;4.00;;;;;;;-144.73;41.28;83313.88;106948;1270;22522;-67
2023/06/14 10:47:41;;;;;;;5.00;3.50;;;;;;;-144.73;41.40;83304.40;106566;1277;23862;-64
2023/06/14 10:50:31;;;;;;;10.10;4.40;;;;;;;-144.73;41.48;83313.48;106707;1273;22528;-68
2023/06/14 10:53:26;;;;;;;8.80;4.20;;;;;;;-144.73;41.65;83376.71;106640;1259;22665;-64
2023/06/14 10:56:34;;;;;;;8.40;3.50;;;;;;;-144.73;41.92;83392.52;107382;1267;22524;-61
2023/06/14 10:59:21;;;;;;;6.70;4.10;;;;;;;-144.73;41.88;83343.91;107725;1269;22668;-67
2023/06/14 11:02:36;;;;;;;9.90;4.00;;;;;;;-144.73;41.65;83329.69;106779;1277;24143;-70
2023/06/14 11:05:27;;;;;;;7.10;3.90;;;;;;;-144.73;41.71;83321.39;106673;1275;22524;-72
2023/06/14 11:08:32;;;;;;;5.40;3.40;;;;;;;-144.73;41.55;83279.90;107062;1266;22529;-68
2023/06/14 11:11:23;;;;;;;8.50;4.10;;;;;;;-144.73;41.44;83285.44;106695;1270;23926;-66
2023/06/14 11:14:10;;;;;;;7.20;4.20;;;;;;;-144.73;41.16;83272.39;106973;1270;22512;-67
2023/06/14 11:16:56;;;;;;;8.30;3.70;;;;;;;-144.73;41.05;83278.33;107093;1263;25507;-65
2023/06/14 11:19:43;;;;;;;9.10;4.40;;;;;;;-144.73;41.05;83240.77;107031;1263;25479;-70
2023/06/14 11:22:39;;;;;;;7.90;4.90;;;;;;;-144.73;40.69;83223.79;107668;1270;22704;-68
2023/06/14 11:25:27;;;;;;;8.00;4.10;;;;;;;-144.73;40.63;83212.33;107581;1266;25442;-68
2023/06/14 11:28:16;;;;;;;8.30;4.10;;;;;;;-144.73;40.45;83179.13;107656;1259;22535;-66
2023/06/14 11:31:03;;;;;;;9.90;4.00;;;;;;;-144.73;39.87;83178.73;107736;1269;22513;-68
2023/06/14 11:33:50;;;;;;;9.10;3.70;;;;;;;-144.73;40.38;83191.78;107520;1273;22514;-68
2023/06/14 11:36:36;;;;;;;9.80;3.70;;;;;;;-144.73;40.77;83272.78;107772;1269;22518;-65
2023/06/14 11:39:27;;;;;;;15.00;4.00;;;;;;;-144.73;41.09;83332.06;107668;1267;25346;-64
2023/06/14 11:42:16;;;;;;;8.10;3.70;;;;;;;-144.73;41.59;83424.53;107598;1267;24269;-64
2023/06/14 11:45:04;;;;;;;6.80;4.30;;;;;;;-144.73;42.67;83499.62;107357;1270;22753;-66
2023/06/14 11:47:56;;;;;;;9.50;4.20;;;;;;;-144.73;43.04;83488.55;107444;1260;24211;-67
2023/06/14 11:50:42;;;;;;;10.70;3.60;;;;;;;-144.73;42.59;83429.67;107609;1267;25210;-66
2023/06/14 11:53:29;;;;;;;9.00;4.00;;;;;;;-144.73;42.20;83403.98;107474;1269;25426;-65
2023/06/14 11:56:16;;;;;;;11.40;3.70;;;;;;;-144.73;41.93;83341.15;107299;1269;25352;-71
2023/06/14 11:59:05;;;;;;;11.70;3.50;;;;;;;-144.73;41.51;83290.95;107820;1270;22526;-69
2023/06/14 12:01:55;;;;;;;7.60;3.10;;;;;;;-144.73;41.26;83293.73;107461;1272;22550;-67
2023/06/14 12:04:42;;;;;;;5.80;3.50;;;;;;;-144.73;40.97;83321.00;107187;1257;22701;-72
2023/06/14 12:07:31;;;;;;;7.20;3.50;;;;;;;-144.73;41.46;83386.59;107559;1266;23355;-69
2023/06/14 12:10:18;;;;;;;7.10;3.30;;;;;;;-144.73;41.95;83417.02;107313;1272;24234;-70
2023/06/14 12:13:05;;;;;;;5.40;3.40;;;;;;;-144.73;42.33;83423.34;107565;1257;22696;-66
2023/06/14 12:15:57;;;;;;;6.00;3.60;;;;;;;-144.73;42.34;83437.17;107399;1267;25325;-72
2023/06/14 12:18:43;;;;;;;9.40;3.90;;;;;;;-144.73;42.12;83430.46;107371;1273;22543;-69
2023/06/14 12:21:33;;;;;;;7.90;3.80;;;;;;;-144.73;42.27;83411.09;107141;1273;26516;-64
2023/06/14 12:24:19;;;;;;;6.30;3.20;;;;;;;-144.73;42.24;83420.58;107310;1267;22637;-65
2023/06/14 12:27:06;;;;;;;8.00;3.80;;;;;;;-144.73;42.10;83424.13;107667;1267;26468;-69
2023/06/14 12:30:04;;;;;;;8.00;3.50;;;;;;;-144.73;42.46;83439.94;107086;1272;22527;-71
2023/06/14 12:32:51;;;;;;;7.90;3.30;;;;;;;-144.73;42.40;83448.23;106894;1274;25083;-67
